XML Sitemap

This is a XML Sitemap which is supposed to be processed by search engines which follow the XML Sitemap standard like Ask.com, Bing, Google and Yahoo.
It was generated using the WordPress content management system and the Google Sitemap Generator Plugin by Arne Brachhold.
You can find more information about XML sitemaps on sitemaps.org and Google's list of sitemap programs.

URLPriorityChange frequencyLast modified (GMT)
http://haxdown.com/surf-anonymous-free-2-5-2-8-full-keygen/4070/20%Monthly2016-04-30 12:10
http://haxdown.com/rank-tracker-professional-8-0-11-full-serial-key/4067/20%Monthly2016-04-30 09:44
http://haxdown.com/occt-4-4-2-full-keygen/4064/20%Monthly2016-04-30 07:31
http://haxdown.com/hal-1-08-225-full-serial-key/4061/20%Monthly2016-04-30 03:59
http://haxdown.com/hallo-northern-sky-3-2-2c-full-keygen/4058/20%Monthly2016-04-29 12:22
http://haxdown.com/adobe-dng-converter-9-5-1-full-crack/4055/20%Monthly2016-04-29 09:35
http://haxdown.com/piccure-plus-2-5-0-69-full-keygen/4052/20%Monthly2016-04-29 07:25
http://haxdown.com/easeus-partition-master-11-0-server-professional-technican-unlimited-edition-full-serial-key/4049/20%Monthly2016-04-29 04:12
http://haxdown.com/syncbackpro-7-6-8-full-serial-key/4046/20%Monthly2016-04-28 12:09
http://haxdown.com/jetaudio-8-1-5-10314-plus-full-serial-key/4043/20%Monthly2016-04-28 09:45
http://haxdown.com/pictus-1-6-0-full-crack/4040/20%Monthly2016-04-28 07:51
http://haxdown.com/similarity-2-1-1-full-keygen/4037/20%Monthly2016-04-28 03:59
http://haxdown.com/free-youtube-to-mp3-converter-4-1-7-426-full-crack/4034/20%Monthly2016-04-27 12:17
http://haxdown.com/aimp-4-02-build-1713-full-keygen/4031/20%Monthly2016-04-27 09:49
http://haxdown.com/4k-video-downloader-4-1-0-2050-full-patch/4028/20%Monthly2016-04-27 07:34
http://haxdown.com/tor-browser-bundle-5-5-5-full-crack/4025/20%Monthly2019-09-24 14:41
http://haxdown.com/acoustica-mixcraft-pro-studio-7-7-310-full-keygen/4022/20%Monthly2016-04-26 12:21
http://haxdown.com/mediachance-photo-reactor-1-3-full-keygen/4019/20%Monthly2016-04-26 09:59
http://haxdown.com/fss-video-converter-2-2-0-3-full-crack/4016/20%Monthly2016-04-26 08:09
http://haxdown.com/registry-finder-2-10-2-full-serial-key/4013/20%Monthly2016-04-26 03:51
http://haxdown.com/wingate-proxy-server-8-5-8-build-4881-full-serial-key/4009/20%Monthly2016-04-25 12:10
http://haxdown.com/seer-0-3-1-full-crack/4005/20%Monthly2016-04-25 09:18
http://haxdown.com/oovoo-3-7-1-13-full-keygen/4002/20%Monthly2016-04-25 03:57
http://haxdown.com/acdsee-pro-9-2-build-524-full-keygen/3998/20%Monthly2016-04-24 12:44
http://haxdown.com/coreldraw-technical-suite-x7-17-6-0-1021-full-crack/3995/20%Monthly2016-04-24 09:31
http://haxdown.com/junkware-removal-tool-8-0-5-full-keygen/3991/20%Monthly2016-04-24 04:03
http://haxdown.com/winguard-pro-2016-10-10-2001-0-full-serial-key/3988/20%Monthly2016-04-23 12:21
http://haxdown.com/atlantis-word-processor-2-0-0-0-beta-b9-full-crack/3985/20%Monthly2016-04-23 09:38
http://haxdown.com/nero-2016-platinum-17-0-04500-full-crack/3982/20%Monthly2016-04-23 07:33
http://haxdown.com/corel-paintshop-pro-x8-18-2-0-6-full-keygen/3979/20%Monthly2016-04-23 03:58
http://haxdown.com/ashampoo-backup-pro-10-01-full-serial-key/3976/20%Monthly2019-09-24 14:21
http://haxdown.com/nuclear-coffee-recover-passwords-1-0-0-28-full-crack/3971/20%Monthly2016-04-22 09:15
http://haxdown.com/pop-art-studio-8-0-batch-edition-full-keygen/3968/20%Monthly2016-04-21 12:27
http://haxdown.com/tsr-watermark-image-software-3-5-5-7-full-keygen/3965/20%Monthly2016-04-21 09:44
http://haxdown.com/alien-skin-exposure-x-1-1-0-2223-revision-33178-full-keygen/3961/20%Monthly2016-04-21 07:52
http://haxdown.com/powerfolder-10-5-394-full-serial-key/3957/20%Monthly2016-04-21 04:40
http://haxdown.com/room-arranger-8-4-1-546-full-keygen/3951/20%Monthly2016-04-19 12:18
http://haxdown.com/save2pc-ultimate-5-45-build-1541-full-patch/3948/20%Monthly2016-04-19 09:21
http://haxdown.com/video-booth-pro-2-7-4-2-full-keygen/3945/20%Monthly2016-04-19 04:22
http://haxdown.com/coolutils-pdf-combine-5-1-84-full-serial-key/3942/20%Monthly2016-04-18 12:26
http://haxdown.com/windows-cleaner-1-8-22-1-full-serial-key/3939/20%Monthly2016-04-18 09:33
http://haxdown.com/icopy-1-6-3-full-keygen/3935/20%Monthly2016-04-17 09:48
http://haxdown.com/depass-1-3-11-full-crack/3932/20%Monthly2016-04-17 07:40
http://haxdown.com/rkill-2-8-4-full-serial-key/3928/20%Monthly2016-04-17 04:15
http://haxdown.com/speed-mp3-downloader-2-6-1-8-full-patch/3924/20%Monthly2016-04-08 09:20
http://haxdown.com/avant-browser-ultimate-2016-build-3-full-crack/3921/20%Monthly2019-09-24 14:42
http://haxdown.com/glarysoft-malware-hunter-1-7-0-15-full-keygen/3918/20%Monthly2016-04-07 12:15
http://haxdown.com/futuremark-3dmark-2-0-1979-professional-edition-full-serial-key/3915/20%Monthly2016-04-07 09:32
http://haxdown.com/shadow-defender-1-4-0-617-full-serial-key/3911/20%Monthly2016-04-07 04:00
http://haxdown.com/4free-video-converter-3-84-full-crack/3907/20%Monthly2016-04-06 12:24
http://haxdown.com/glarysoft-registry-repair-5-0-1-73-full-keygen/3904/20%Monthly2019-09-30 10:28
http://haxdown.com/spyhunter-4-21-18-4608-full-serial-key/3901/20%Monthly2016-04-06 04:21
http://haxdown.com/prtg-network-monitor-16-2-23-3077-full-serial-key/3898/20%Monthly2016-04-05 12:18
http://haxdown.com/super-grub2-disk-2-02s4-full-keygen/3895/20%Monthly2016-04-05 09:24
http://haxdown.com/temp-file-cleaner-3-5-0-full-crack/3892/20%Monthly2016-04-05 04:04
http://haxdown.com/copy-handler-1-40-815-full-keygen/3889/20%Monthly2016-04-04 12:23
http://haxdown.com/bulk-crap-uninstaller-3-3-2-full-serial-key/3886/20%Monthly2016-04-04 09:12
http://haxdown.com/shotcut-16-04-01-full-keygen/3883/20%Monthly2016-04-04 04:02
http://haxdown.com/tipard-video-enhancer-1-0-10-full-crack/3880/20%Monthly2016-04-03 11:05
http://haxdown.com/magix-music-maker-2016-premium-22-0-3-63-full-crack/3877/20%Monthly2016-04-03 04:02
http://haxdown.com/hirschmann-industrial-hivision-06-0-03-full-keygen/3874/20%Monthly2016-04-02 12:26
http://haxdown.com/movie-label-2016-professional-11-1-build-2340-full-crack/3871/20%Monthly2016-04-02 09:18
http://haxdown.com/4media-video-converter-ultimate-7-8-14-build-20160322-full-crack/3868/20%Monthly2016-04-01 12:17
http://haxdown.com/radioboss-5-4-4-0-full-keygen/3865/20%Monthly2016-04-01 09:40
http://haxdown.com/zero-assumption-recovery-10-0-328-technician-edition-full-crack/3862/20%Monthly2016-04-01 03:54